sensor_id;sensor_type;location;lat;lon;timestamp;temperature;humidity
47861;HTU21D;33620;52.340;5.984;2023-08-24T00:01:06;19.01;75.38
47861;HTU21D;33620;52.340;5.984;2023-08-24T00:03:32;18.98;75.38
47861;HTU21D;33620;52.340;5.984;2023-08-24T00:05:58;18.97;75.30
47861;HTU21D;33620;52.340;5.984;2023-08-24T00:08:23;18.96;75.34
47861;HTU21D;33620;52.340;5.984;2023-08-24T00:10:49;18.93;75.37
47861;HTU21D;33620;52.340;5.984;2023-08-24T00:13:14;18.91;75.34
47861;HTU21D;33620;52.340;5.984;2023-08-24T00:15:40;18.89;75.46
47861;HTU21D;33620;52.340;5.984;2023-08-24T00:18:07;18.91;75.83
47861;HTU21D;33620;52.340;5.984;2023-08-24T00:20:33;18.86;76.06
47861;HTU21D;33620;52.340;5.984;2023-08-24T00:22:59;18.83;76.18
47861;HTU21D;33620;52.340;5.984;2023-08-24T00:25:24;18.87;76.13
47861;HTU21D;33620;52.340;5.984;2023-08-24T00:27:52;18.94;76.50
47861;HTU21D;33620;52.340;5.984;2023-08-24T00:30:18;18.92;76.23
47861;HTU21D;33620;52.340;5.984;2023-08-24T00:32:43;18.87;76.59
47861;HTU21D;33620;52.340;5.984;2023-08-24T00:35:09;18.88;76.63
47861;HTU21D;33620;52.340;5.984;2023-08-24T00:37:36;18.83;76.89
47861;HTU21D;33620;52.340;5.984;2023-08-24T00:40:03;18.84;77.39
47861;HTU21D;33620;52.340;5.984;2023-08-24T00:42:42;18.88;77.21
47861;HTU21D;33620;52.340;5.984;2023-08-24T00:45:09;18.94;76.98
47861;HTU21D;33620;52.340;5.984;2023-08-24T00:47:40;18.97;77.08
47861;HTU21D;33620;52.340;5.984;2023-08-24T00:50:09;19.02;77.39
47861;HTU21D;33620;52.340;5.984;2023-08-24T00:52:37;19.08;77.44
47861;HTU21D;33620;52.340;5.984;2023-08-24T00:55:05;19.11;77.63
47861;HTU21D;33620;52.340;5.984;2023-08-24T00:57:31;19.12;77.82
47861;HTU21D;33620;52.340;5.984;2023-08-24T00:59:59;19.15;77.80
47861;HTU21D;33620;52.340;5.984;2023-08-24T01:02:24;19.16;77.79
47861;HTU21D;33620;52.340;5.984;2023-08-24T01:04:50;19.17;77.79
47861;HTU21D;33620;52.340;5.984;2023-08-24T01:07:16;19.20;77.86
47861;HTU21D;33620;52.340;5.984;2023-08-24T01:09:43;19.23;77.93
47861;HTU21D;33620;52.340;5.984;2023-08-24T01:14:54;19.22;78.01
47861;HTU21D;33620;52.340;5.984;2023-08-24T01:17:26;19.24;78.11
47861;HTU21D;33620;52.340;5.984;2023-08-24T01:19:54;19.25;78.21
47861;HTU21D;33620;52.340;5.984;2023-08-24T01:25:12;19.26;78.26
47861;HTU21D;33620;52.340;5.984;2023-08-24T01:27:41;19.27;78.20
47861;HTU21D;33620;52.340;5.984;2023-08-24T01:30:07;19.31;78.00
47861;HTU21D;33620;52.340;5.984;2023-08-24T01:32:40;19.30;78.02
47861;HTU21D;33620;52.340;5.984;2023-08-24T01:35:08;19.32;77.89
47861;HTU21D;33620;52.340;5.984;2023-08-24T01:37:36;19.33;77.98
47861;HTU21D;33620;52.340;5.984;2023-08-24T01:40:06;19.32;77.94
47861;HTU21D;33620;52.340;5.984;2023-08-24T01:42:45;19.30;78.14
47861;HTU21D;33620;52.340;5.984;2023-08-24T01:45:13;19.31;78.07
47861;HTU21D;33620;52.340;5.984;2023-08-24T01:47:41;19.32;78.08
47861;HTU21D;33620;52.340;5.984;2023-08-24T01:50:08;19.30;77.95
47861;HTU21D;33620;52.340;5.984;2023-08-24T01:52:33;19.26;78.34
47861;HTU21D;33620;52.340;5.984;2023-08-24T01:54:59;19.20;78.68
47861;HTU21D;33620;52.340;5.984;2023-08-24T01:57:25;19.17;78.95
47861;HTU21D;33620;52.340;5.984;2023-08-24T01:59:50;19.15;79.02
47861;HTU21D;33620;52.340;5.984;2023-08-24T02:02:16;19.13;79.16
47861;HTU21D;33620;52.340;5.984;2023-08-24T02:04:42;19.10;79.24
47861;HTU21D;33620;52.340;5.984;2023-08-24T02:07:07;19.08;79.24
47861;HTU21D;33620;52.340;5.984;2023-08-24T02:09:33;19.10;79.24
47861;HTU21D;33620;52.340;5.984;2023-08-24T02:11:58;19.08;79.26
47861;HTU21D;33620;52.340;5.984;2023-08-24T02:14:23;19.03;79.45
47861;HTU21D;33620;52.340;5.984;2023-08-24T02:16:49;19.00;79.57
47861;HTU21D;33620;52.340;5.984;2023-08-24T02:19:14;18.96;79.69
47861;HTU21D;33620;52.340;5.984;2023-08-24T02:21:39;18.93;79.67
47861;HTU21D;33620;52.340;5.984;2023-08-24T02:24:05;18.97;79.65
47861;HTU21D;33620;52.340;5.984;2023-08-24T02:26:31;18.99;79.57
47861;HTU21D;33620;52.340;5.984;2023-08-24T02:28:57;18.99;79.66
47861;HTU21D;33620;52.340;5.984;2023-08-24T02:31:23;19.02;80.12
47861;HTU21D;33620;52.340;5.984;2023-08-24T02:33:48;19.06;80.27
47861;HTU21D;33620;52.340;5.984;2023-08-24T02:36:14;19.08;80.33
47861;HTU21D;33620;52.340;5.984;2023-08-24T02:38:39;19.06;80.92
47861;HTU21D;33620;52.340;5.984;2023-08-24T02:41:07;19.08;81.36
47861;HTU21D;33620;52.340;5.984;2023-08-24T02:43:33;19.06;81.55
47861;HTU21D;33620;52.340;5.984;2023-08-24T02:46:03;19.00;82.36
47861;HTU21D;33620;52.340;5.984;2023-08-24T02:48:29;18.93;82.78
47861;HTU21D;33620;52.340;5.984;2023-08-24T02:50:56;18.84;83.23
47861;HTU21D;33620;52.340;5.984;2023-08-24T02:53:21;18.77;83.55
47861;HTU21D;33620;52.340;5.984;2023-08-24T02:55:47;18.69;83.74
47861;HTU21D;33620;52.340;5.984;2023-08-24T02:58:12;18.65;83.91
47861;HTU21D;33620;52.340;5.984;2023-08-24T03:00:38;18.67;83.96
47861;HTU21D;33620;52.340;5.984;2023-08-24T03:03:04;18.74;83.85
47861;HTU21D;33620;52.340;5.984;2023-08-24T03:05:31;18.77;83.41
47861;HTU21D;33620;52.340;5.984;2023-08-24T03:07:58;18.81;83.32
47861;HTU21D;33620;52.340;5.984;2023-08-24T03:10:23;18.82;83.37
47861;HTU21D;33620;52.340;5.984;2023-08-24T03:12:49;18.81;83.41
47861;HTU21D;33620;52.340;5.984;2023-08-24T03:15:14;18.78;83.10
47861;HTU21D;33620;52.340;5.984;2023-08-24T03:17:40;18.77;83.51
47861;HTU21D;33620;52.340;5.984;2023-08-24T03:20:06;18.82;83.49
47861;HTU21D;33620;52.340;5.984;2023-08-24T03:22:31;18.84;83.38
47861;HTU21D;33620;52.340;5.984;2023-08-24T03:24:57;18.83;83.44
47861;HTU21D;33620;52.340;5.984;2023-08-24T03:27:22;18.82;83.48
47861;HTU21D;33620;52.340;5.984;2023-08-24T03:29:48;18.81;83.61
47861;HTU21D;33620;52.340;5.984;2023-08-24T03:32:13;18.84;83.61
47861;HTU21D;33620;52.340;5.984;2023-08-24T03:34:39;18.84;83.76
47861;HTU21D;33620;52.340;5.984;2023-08-24T03:37:05;18.85;83.71
47861;HTU21D;33620;52.340;5.984;2023-08-24T03:39:30;18.86;83.40
47861;HTU21D;33620;52.340;5.984;2023-08-24T03:41:56;18.87;83.21
47861;HTU21D;33620;52.340;5.984;2023-08-24T03:44:21;18.85;83.14
47861;HTU21D;33620;52.340;5.984;2023-08-24T03:46:47;18.85;83.07
47861;HTU21D;33620;52.340;5.984;2023-08-24T03:49:12;18.85;82.92
47861;HTU21D;33620;52.340;5.984;2023-08-24T03:51:38;18.82;82.84
47861;HTU21D;33620;52.340;5.984;2023-08-24T03:54:03;18.80;82.88
47861;HTU21D;33620;52.340;5.984;2023-08-24T03:56:30;18.78;82.94
47861;HTU21D;33620;52.340;5.984;2023-08-24T03:58:56;18.74;82.90
47861;HTU21D;33620;52.340;5.984;2023-08-24T04:01:21;18.73;82.97
47861;HTU21D;33620;52.340;5.984;2023-08-24T04:03:47;18.68;83.12
47861;HTU21D;33620;52.340;5.984;2023-08-24T04:06:13;18.65;83.25
47861;HTU21D;33620;52.340;5.984;2023-08-24T04:08:38;18.66;83.23
47861;HTU21D;33620;52.340;5.984;2023-08-24T04:11:04;18.64;83.30
47861;HTU21D;33620;52.340;5.984;2023-08-24T04:13:29;18.64;83.20
47861;HTU21D;33620;52.340;5.984;2023-08-24T04:15:54;18.62;83.28
47861;HTU21D;33620;52.340;5.984;2023-08-24T04:18:20;18.61;83.25
47861;HTU21D;33620;52.340;5.984;2023-08-24T04:20:45;18.61;83.18
47861;HTU21D;33620;52.340;5.984;2023-08-24T04:23:13;18.59;83.18
47861;HTU21D;33620;52.340;5.984;2023-08-24T04:25:41;18.57;83.05
47861;HTU21D;33620;52.340;5.984;2023-08-24T04:28:08;18.54;83.18
47861;HTU21D;33620;52.340;5.984;2023-08-24T04:30:33;18.53;83.26
47861;HTU21D;33620;52.340;5.984;2023-08-24T04:32:59;18.51;83.39
47861;HTU21D;33620;52.340;5.984;2023-08-24T04:35:25;18.52;83.28
47861;HTU21D;33620;52.340;5.984;2023-08-24T04:37:51;18.48;83.20
47861;HTU21D;33620;52.340;5.984;2023-08-24T04:40:16;18.44;83.16
47861;HTU21D;33620;52.340;5.984;2023-08-24T04:42:42;18.42;83.58
47861;HTU21D;33620;52.340;5.984;2023-08-24T04:45:07;18.44;83.69
47861;HTU21D;33620;52.340;5.984;2023-08-24T04:47:33;18.44;83.56
47861;HTU21D;33620;52.340;5.984;2023-08-24T04:49:58;18.43;83.47
47861;HTU21D;33620;52.340;5.984;2023-08-24T04:52:23;18.42;83.58
47861;HTU21D;33620;52.340;5.984;2023-08-24T04:54:49;18.41;83.73
47861;HTU21D;33620;52.340;5.984;2023-08-24T04:57:15;18.39;83.60
47861;HTU21D;33620;52.340;5.984;2023-08-24T04:59:40;18.41;83.71
47861;HTU21D;33620;52.340;5.984;2023-08-24T05:02:05;18.39;83.71
47861;HTU21D;33620;52.340;5.984;2023-08-24T05:04:31;18.35;83.65
47861;HTU21D;33620;52.340;5.984;2023-08-24T05:06:56;18.33;83.78
47861;HTU21D;33620;52.340;5.984;2023-08-24T05:09:22;18.30;83.81
47861;HTU21D;33620;52.340;5.984;2023-08-24T05:11:48;18.26;83.73
47861;HTU21D;33620;52.340;5.984;2023-08-24T05:14:13;18.27;84.15
47861;HTU21D;33620;52.340;5.984;2023-08-24T05:16:39;18.29;84.36
47861;HTU21D;33620;52.340;5.984;2023-08-24T05:19:04;18.33;84.41
47861;HTU21D;33620;52.340;5.984;2023-08-24T05:21:30;18.34;84.35
47861;HTU21D;33620;52.340;5.984;2023-08-24T05:23:55;18.36;84.29
47861;HTU21D;33620;52.340;5.984;2023-08-24T05:26:20;18.36;84.39
47861;HTU21D;33620;52.340;5.984;2023-08-24T05:28:50;18.40;84.46
47861;HTU21D;33620;52.340;5.984;2023-08-24T05:31:16;18.41;84.42
47861;HTU21D;33620;52.340;5.984;2023-08-24T05:33:41;18.43;84.33
47861;HTU21D;33620;52.340;5.984;2023-08-24T05:36:06;18.42;84.23
47861;HTU21D;33620;52.340;5.984;2023-08-24T05:38:32;18.41;84.31
47861;HTU21D;33620;52.340;5.984;2023-08-24T05:40:57;18.42;84.50
47861;HTU21D;33620;52.340;5.984;2023-08-24T05:43:23;18.43;84.39
47861;HTU21D;33620;52.340;5.984;2023-08-24T05:45:48;18.47;84.42
47861;HTU21D;33620;52.340;5.984;2023-08-24T05:48:14;18.49;84.31
47861;HTU21D;33620;52.340;5.984;2023-08-24T05:50:44;18.49;84.35
47861;HTU21D;33620;52.340;5.984;2023-08-24T05:53:10;18.49;84.43
47861;HTU21D;33620;52.340;5.984;2023-08-24T05:55:35;18.47;84.27
47861;HTU21D;33620;52.340;5.984;2023-08-24T05:58:01;18.44;84.43
47861;HTU21D;33620;52.340;5.984;2023-08-24T06:00:26;18.44;84.62
47861;HTU21D;33620;52.340;5.984;2023-08-24T06:02:52;18.42;84.68
47861;HTU21D;33620;52.340;5.984;2023-08-24T06:05:17;18.42;84.70
47861;HTU21D;33620;52.340;5.984;2023-08-24T06:07:43;18.44;84.64
47861;HTU21D;33620;52.340;5.984;2023-08-24T06:10:09;18.48;84.71
47861;HTU21D;33620;52.340;5.984;2023-08-24T06:12:34;18.50;84.82
47861;HTU21D;33620;52.340;5.984;2023-08-24T06:15:00;18.52;84.84
47861;HTU21D;33620;52.340;5.984;2023-08-24T06:17:28;18.53;85.00
47861;HTU21D;33620;52.340;5.984;2023-08-24T06:19:53;18.58;84.90
47861;HTU21D;33620;52.340;5.984;2023-08-24T06:22:18;18.62;84.87
47861;HTU21D;33620;52.340;5.984;2023-08-24T06:24:44;18.63;84.81
47861;HTU21D;33620;52.340;5.984;2023-08-24T06:27:09;18.66;84.84
47861;HTU21D;33620;52.340;5.984;2023-08-24T06:29:34;18.69;85.06
47861;HTU21D;33620;52.340;5.984;2023-08-24T06:32:00;18.74;85.27
47861;HTU21D;33620;52.340;5.984;2023-08-24T06:34:25;18.79;85.35
47861;HTU21D;33620;52.340;5.984;2023-08-24T06:36:53;18.85;85.29
47861;HTU21D;33620;52.340;5.984;2023-08-24T06:39:19;18.88;85.26
47861;HTU21D;33620;52.340;5.984;2023-08-24T06:41:44;18.93;85.05
47861;HTU21D;33620;52.340;5.984;2023-08-24T06:44:10;18.97;84.93
47861;HTU21D;33620;52.340;5.984;2023-08-24T06:46:35;19.01;84.91
47861;HTU21D;33620;52.340;5.984;2023-08-24T06:49:00;19.05;84.81
47861;HTU21D;33620;52.340;5.984;2023-08-24T06:51:27;19.08;84.86
47861;HTU21D;33620;52.340;5.984;2023-08-24T06:53:53;19.10;84.97
47861;HTU21D;33620;52.340;5.984;2023-08-24T06:56:18;19.14;85.07
47861;HTU21D;33620;52.340;5.984;2023-08-24T06:58:44;19.17;84.84
47861;HTU21D;33620;52.340;5.984;2023-08-24T07:01:10;19.20;84.74
47861;HTU21D;33620;52.340;5.984;2023-08-24T07:03:36;19.22;84.62
47861;HTU21D;33620;52.340;5.984;2023-08-24T07:06:01;19.25;84.67
47861;HTU21D;33620;52.340;5.984;2023-08-24T07:08:27;19.30;84.70
47861;HTU21D;33620;52.340;5.984;2023-08-24T07:10:52;19.32;85.03
47861;HTU21D;33620;52.340;5.984;2023-08-24T07:13:18;19.38;85.13
47861;HTU21D;33620;52.340;5.984;2023-08-24T07:15:43;19.41;84.97
47861;HTU21D;33620;52.340;5.984;2023-08-24T07:18:10;19.46;85.03
47861;HTU21D;33620;52.340;5.984;2023-08-24T07:20:37;19.52;85.27
47861;HTU21D;33620;52.340;5.984;2023-08-24T07:23:02;19.55;85.48
47861;HTU21D;33620;52.340;5.984;2023-08-24T07:25:28;19.55;85.64
47861;HTU21D;33620;52.340;5.984;2023-08-24T07:27:53;19.60;85.50
47861;HTU21D;33620;52.340;5.984;2023-08-24T07:30:27;19.66;85.25
47861;HTU21D;33620;52.340;5.984;2023-08-24T07:32:53;19.71;85.06
47861;HTU21D;33620;52.340;5.984;2023-08-24T07:35:18;19.75;84.91
47861;HTU21D;33620;52.340;5.984;2023-08-24T07:37:46;19.81;84.95
47861;HTU21D;33620;52.340;5.984;2023-08-24T07:40:13;19.83;85.15
47861;HTU21D;33620;52.340;5.984;2023-08-24T07:42:51;19.87;85.12
47861;HTU21D;33620;52.340;5.984;2023-08-24T07:45:20;19.91;84.71
47861;HTU21D;33620;52.340;5.984;2023-08-24T07:47:45;19.99;84.45
47861;HTU21D;33620;52.340;5.984;2023-08-24T07:50:11;20.05;84.28
47861;HTU21D;33620;52.340;5.984;2023-08-24T07:52:38;20.12;84.45
47861;HTU21D;33620;52.340;5.984;2023-08-24T07:55:04;20.22;84.70
47861;HTU21D;33620;52.340;5.984;2023-08-24T07:57:33;20.31;84.58
47861;HTU21D;33620;52.340;5.984;2023-08-24T07:59:59;20.40;84.46
47861;HTU21D;33620;52.340;5.984;2023-08-24T08:02:24;20.49;84.59
47861;HTU21D;33620;52.340;5.984;2023-08-24T08:04:49;20.55;84.36
47861;HTU21D;33620;52.340;5.984;2023-08-24T08:07:15;20.60;83.38
47861;HTU21D;33620;52.340;5.984;2023-08-24T08:09:40;20.64;83.61
47861;HTU21D;33620;52.340;5.984;2023-08-24T08:12:06;20.71;83.72
47861;HTU21D;33620;52.340;5.984;2023-08-24T08:14:31;20.75;83.92
47861;HTU21D;33620;52.340;5.984;2023-08-24T08:16:57;20.81;83.58
47861;HTU21D;33620;52.340;5.984;2023-08-24T08:19:22;20.88;83.44
47861;HTU21D;33620;52.340;5.984;2023-08-24T08:21:50;20.92;83.04
47861;HTU21D;33620;52.340;5.984;2023-08-24T08:24:16;20.99;82.63
47861;HTU21D;33620;52.340;5.984;2023-08-24T08:26:41;21.07;82.26
47861;HTU21D;33620;52.340;5.984;2023-08-24T08:29:07;21.17;82.21
47861;HTU21D;33620;52.340;5.984;2023-08-24T08:31:32;21.24;81.94
47861;HTU21D;33620;52.340;5.984;2023-08-24T08:33:57;21.33;82.08
47861;HTU21D;33620;52.340;5.984;2023-08-24T08:36:23;21.39;81.67
47861;HTU21D;33620;52.340;5.984;2023-08-24T08:38:48;21.49;81.70
47861;HTU21D;33620;52.340;5.984;2023-08-24T08:41:14;21.59;81.65
47861;HTU21D;33620;52.340;5.984;2023-08-24T08:43:41;21.69;81.97
47861;HTU21D;33620;52.340;5.984;2023-08-24T08:46:06;21.75;80.73
47861;HTU21D;33620;52.340;5.984;2023-08-24T08:48:32;21.79;79.91
47861;HTU21D;33620;52.340;5.984;2023-08-24T08:50:59;21.87;79.53
47861;HTU21D;33620;52.340;5.984;2023-08-24T08:53:27;21.96;79.25
47861;HTU21D;33620;52.340;5.984;2023-08-24T08:55:54;22.05;78.90
47861;HTU21D;33620;52.340;5.984;2023-08-24T08:58:20;22.11;78.18
47861;HTU21D;33620;52.340;5.984;2023-08-24T09:00:46;22.19;77.56
47861;HTU21D;33620;52.340;5.984;2023-08-24T09:03:14;22.31;78.18
47861;HTU21D;33620;52.340;5.984;2023-08-24T09:05:41;22.40;77.61
47861;HTU21D;33620;52.340;5.984;2023-08-24T09:08:07;22.52;77.58
47861;HTU21D;33620;52.340;5.984;2023-08-24T09:10:32;22.63;77.18
47861;HTU21D;33620;52.340;5.984;2023-08-24T09:12:58;22.73;77.17
47861;HTU21D;33620;52.340;5.984;2023-08-24T09:15:24;22.80;76.37
47861;HTU21D;33620;52.340;5.984;2023-08-24T09:17:51;22.91;76.36
47861;HTU21D;33620;52.340;5.984;2023-08-24T09:20:17;23.00;75.96
47861;HTU21D;33620;52.340;5.984;2023-08-24T09:22:43;23.08;74.03
47861;HTU21D;33620;52.340;5.984;2023-08-24T09:25:10;23.17;73.96
47861;HTU21D;33620;52.340;5.984;2023-08-24T09:27:35;23.25;73.29
47861;HTU21D;33620;52.340;5.984;2023-08-24T09:30:01;23.37;73.06
47861;HTU21D;33620;52.340;5.984;2023-08-24T09:32:30;23.44;72.20
47861;HTU21D;33620;52.340;5.984;2023-08-24T09:35:02;23.53;71.26
47861;HTU21D;33620;52.340;5.984;2023-08-24T09:37:35;23.59;71.24
47861;HTU21D;33620;52.340;5.984;2023-08-24T09:40:04;23.65;70.60
47861;HTU21D;33620;52.340;5.984;2023-08-24T09:42:43;23.69;71.05
47861;HTU21D;33620;52.340;5.984;2023-08-24T09:45:11;23.73;70.84
47861;HTU21D;33620;52.340;5.984;2023-08-24T09:47:37;23.83;70.56
47861;HTU21D;33620;52.340;5.984;2023-08-24T09:50:04;23.95;70.43
47861;HTU21D;33620;52.340;5.984;2023-08-24T09:52:33;24.06;69.52
47861;HTU21D;33620;52.340;5.984;2023-08-24T09:55:05;24.21;69.29
47861;HTU21D;33620;52.340;5.984;2023-08-24T09:57:37;24.34;67.43
47861;HTU21D;33620;52.340;5.984;2023-08-24T10:00:06;24.47;68.47
47861;HTU21D;33620;52.340;5.984;2023-08-24T10:02:36;24.58;68.19
47861;HTU21D;33620;52.340;5.984;2023-08-24T10:05:02;24.69;67.90
47861;HTU21D;33620;52.340;5.984;2023-08-24T10:07:29;24.83;67.41
47861;HTU21D;33620;52.340;5.984;2023-08-24T10:10:08;24.94;66.39
47861;HTU21D;33620;52.340;5.984;2023-08-24T10:12:43;25.09;65.78
47861;HTU21D;33620;52.340;5.984;2023-08-24T10:15:09;25.20;66.56
47861;HTU21D;33620;52.340;5.984;2023-08-24T10:17:37;25.29;65.56
47861;HTU21D;33620;52.340;5.984;2023-08-24T10:20:05;25.35;65.95
47861;HTU21D;33620;52.340;5.984;2023-08-24T10:22:34;25.35;65.46
47861;HTU21D;33620;52.340;5.984;2023-08-24T10:24:59;25.34;65.96
47861;HTU21D;33620;52.340;5.984;2023-08-24T10:27:27;25.30;66.88
47861;HTU21D;33620;52.340;5.984;2023-08-24T10:29:52;25.24;66.81
47861;HTU21D;33620;52.340;5.984;2023-08-24T10:32:19;25.21;66.68
47861;HTU21D;33620;52.340;5.984;2023-08-24T10:34:46;25.19;67.51
47861;HTU21D;33620;52.340;5.984;2023-08-24T10:37:11;25.18;67.61
47861;HTU21D;33620;52.340;5.984;2023-08-24T10:39:45;25.19;67.51
47861;HTU21D;33620;52.340;5.984;2023-08-24T10:42:11;25.21;67.84
47861;HTU21D;33620;52.340;5.984;2023-08-24T10:44:38;25.27;68.57
47861;HTU21D;33620;52.340;5.984;2023-08-24T10:49:33;25.30;67.92
47861;HTU21D;33620;52.340;5.984;2023-08-24T10:52:16;25.27;67.85
47861;HTU21D;33620;52.340;5.984;2023-08-24T10:54:43;25.25;67.30
47861;HTU21D;33620;52.340;5.984;2023-08-24T10:57:21;25.25;67.50
47861;HTU21D;33620;52.340;5.984;2023-08-24T11:00:02;25.25;67.84
47861;HTU21D;33620;52.340;5.984;2023-08-24T11:02:40;25.23;68.71
47861;HTU21D;33620;52.340;5.984;2023-08-24T11:05:07;25.21;68.44
47861;HTU21D;33620;52.340;5.984;2023-08-24T11:10:19;25.16;67.85
47861;HTU21D;33620;52.340;5.984;2023-08-24T11:15:41;25.16;67.70
47861;HTU21D;33620;52.340;5.984;2023-08-24T11:18:23;25.19;68.70
47861;HTU21D;33620;52.340;5.984;2023-08-24T11:21:05;25.23;69.01
47861;HTU21D;33620;52.340;5.984;2023-08-24T11:23:32;25.25;68.69
47861;HTU21D;33620;52.340;5.984;2023-08-24T11:25:58;25.25;67.09
47861;HTU21D;33620;52.340;5.984;2023-08-24T11:28:26;25.28;67.08
47861;HTU21D;33620;52.340;5.984;2023-08-24T11:30:54;25.32;68.91
47861;HTU21D;33620;52.340;5.984;2023-08-24T11:33:32;25.34;68.71
47861;HTU21D;33620;52.340;5.984;2023-08-24T11:35:58;25.35;68.39
47861;HTU21D;33620;52.340;5.984;2023-08-24T11:38:25;25.32;67.72
47861;HTU21D;33620;52.340;5.984;2023-08-24T11:40:59;25.27;68.39
47861;HTU21D;33620;52.340;5.984;2023-08-24T11:43:25;25.19;68.23
47861;HTU21D;33620;52.340;5.984;2023-08-24T11:45:53;25.14;67.43
47861;HTU21D;33620;52.340;5.984;2023-08-24T11:48:23;25.12;68.37
47861;HTU21D;33620;52.340;5.984;2023-08-24T11:50:49;25.06;68.29
47861;HTU21D;33620;52.340;5.984;2023-08-24T11:53:16;25.04;68.83
47861;HTU21D;33620;52.340;5.984;2023-08-24T11:55:42;25.07;69.41
47861;HTU21D;33620;52.340;5.984;2023-08-24T11:58:16;25.10;69.90
47861;HTU21D;33620;52.340;5.984;2023-08-24T12:00:42;25.17;69.73
47861;HTU21D;33620;52.340;5.984;2023-08-24T12:03:08;25.20;69.38
47861;HTU21D;33620;52.340;5.984;2023-08-24T12:05:34;25.28;69.47
47861;HTU21D;33620;52.340;5.984;2023-08-24T12:08:00;25.31;68.52
47861;HTU21D;33620;52.340;5.984;2023-08-24T12:10:25;25.35;69.47
47861;HTU21D;33620;52.340;5.984;2023-08-24T12:13:03;25.44;68.92
47861;HTU21D;33620;52.340;5.984;2023-08-24T12:15:30;25.49;68.84
47861;HTU21D;33620;52.340;5.984;2023-08-24T12:17:56;25.51;68.84
47861;HTU21D;33620;52.340;5.984;2023-08-24T12:20:22;25.53;68.53
47861;HTU21D;33620;52.340;5.984;2023-08-24T12:22:52;25.56;68.13
47861;HTU21D;33620;52.340;5.984;2023-08-24T12:25:18;25.64;68.83
47861;HTU21D;33620;52.340;5.984;2023-08-24T12:27:46;25.67;69.36
47861;HTU21D;33620;52.340;5.984;2023-08-24T12:30:12;25.69;68.83
47861;HTU21D;33620;52.340;5.984;2023-08-24T12:32:45;25.69;68.36
47861;HTU21D;33620;52.340;5.984;2023-08-24T12:35:11;25.69;67.80
47861;HTU21D;33620;52.340;5.984;2023-08-24T12:37:36;25.77;66.93
47861;HTU21D;33620;52.340;5.984;2023-08-24T12:40:06;25.83;68.05
47861;HTU21D;33620;52.340;5.984;2023-08-24T12:42:31;25.88;67.81
47861;HTU21D;33620;52.340;5.984;2023-08-24T12:44:57;25.89;67.14
47861;HTU21D;33620;52.340;5.984;2023-08-24T12:47:22;25.91;67.82
47861;HTU21D;33620;52.340;5.984;2023-08-24T12:49:47;25.89;66.10
47861;HTU21D;33620;52.340;5.984;2023-08-24T12:52:13;25.93;66.52
47861;HTU21D;33620;52.340;5.984;2023-08-24T12:54:39;25.97;66.28
47861;HTU21D;33620;52.340;5.984;2023-08-24T12:57:04;26.03;66.32
47861;HTU21D;33620;52.340;5.984;2023-08-24T12:59:30;26.08;67.68
47861;HTU21D;33620;52.340;5.984;2023-08-24T13:01:55;26.10;67.01
47861;HTU21D;33620;52.340;5.984;2023-08-24T13:04:20;26.12;67.46
47861;HTU21D;33620;52.340;5.984;2023-08-24T13:06:46;26.12;66.74
47861;HTU21D;33620;52.340;5.984;2023-08-24T13:09:12;26.17;67.01
47861;HTU21D;33620;52.340;5.984;2023-08-24T13:11:39;26.22;66.30
47861;HTU21D;33620;52.340;5.984;2023-08-24T13:14:04;26.35;65.36
47861;HTU21D;33620;52.340;5.984;2023-08-24T13:16:30;26.43;64.66
47861;HTU21D;33620;52.340;5.984;2023-08-24T13:18:56;26.48;64.78
47861;HTU21D;33620;52.340;5.984;2023-08-24T13:21:21;26.49;63.99
47861;HTU21D;33620;52.340;5.984;2023-08-24T13:23:47;26.48;65.28
47861;HTU21D;33620;52.340;5.984;2023-08-24T13:26:20;26.42;64.82
47861;HTU21D;33620;52.340;5.984;2023-08-24T13:28:49;26.38;64.94
47861;HTU21D;33620;52.340;5.984;2023-08-24T13:31:15;26.35;66.13
47861;HTU21D;33620;52.340;5.984;2023-08-24T13:33:40;26.25;65.44
47861;HTU21D;33620;52.340;5.984;2023-08-24T13:36:05;26.16;65.64
47861;HTU21D;33620;52.340;5.984;2023-08-24T13:38:31;26.01;65.14
47861;HTU21D;33620;52.340;5.984;2023-08-24T13:40:56;25.92;64.63
47861;HTU21D;33620;52.340;5.984;2023-08-24T13:43:22;25.87;64.50
47861;HTU21D;33620;52.340;5.984;2023-08-24T13:45:47;25.84;64.73
47861;HTU21D;33620;52.340;5.984;2023-08-24T13:48:13;25.88;66.18
47861;HTU21D;33620;52.340;5.984;2023-08-24T13:50:41;25.84;65.85
47861;HTU21D;33620;52.340;5.984;2023-08-24T13:53:07;25.84;66.10
47861;HTU21D;33620;52.340;5.984;2023-08-24T13:55:32;25.83;66.06
47861;HTU21D;33620;52.340;5.984;2023-08-24T13:57:57;25.84;66.34
47861;HTU21D;33620;52.340;5.984;2023-08-24T14:00:23;25.84;66.78
47861;HTU21D;33620;52.340;5.984;2023-08-24T14:02:49;25.82;66.99
47861;HTU21D;33620;52.340;5.984;2023-08-24T14:05:15;25.82;66.85
47861;HTU21D;33620;52.340;5.984;2023-08-24T14:07:41;25.88;66.93
47861;HTU21D;33620;52.340;5.984;2023-08-24T14:10:06;25.94;67.23
47861;HTU21D;33620;52.340;5.984;2023-08-24T14:12:33;26.02;67.43
47861;HTU21D;33620;52.340;5.984;2023-08-24T14:15:00;26.11;67.26
47861;HTU21D;33620;52.340;5.984;2023-08-24T14:17:25;26.16;67.71
47861;HTU21D;33620;52.340;5.984;2023-08-24T14:19:50;26.22;67.13
47861;HTU21D;33620;52.340;5.984;2023-08-24T14:22:16;26.25;66.85
47861;HTU21D;33620;52.340;5.984;2023-08-24T14:24:41;26.28;66.78
47861;HTU21D;33620;52.340;5.984;2023-08-24T14:27:06;26.28;66.94
47861;HTU21D;33620;52.340;5.984;2023-08-24T14:29:32;26.30;67.02
47861;HTU21D;33620;52.340;5.984;2023-08-24T14:31:57;26.27;66.69
47861;HTU21D;33620;52.340;5.984;2023-08-24T14:34:23;26.28;66.51
47861;HTU21D;33620;52.340;5.984;2023-08-24T14:36:48;26.28;66.23
47861;HTU21D;33620;52.340;5.984;2023-08-24T14:39:14;26.26;66.44
47861;HTU21D;33620;52.340;5.984;2023-08-24T14:41:39;26.24;67.27
47861;HTU21D;33620;52.340;5.984;2023-08-24T14:44:04;26.22;68.05
47861;HTU21D;33620;52.340;5.984;2023-08-24T14:46:30;26.18;67.03
47861;HTU21D;33620;52.340;5.984;2023-08-24T14:48:55;26.15;66.92
47861;HTU21D;33620;52.340;5.984;2023-08-24T14:51:21;26.15;67.12
47861;HTU21D;33620;52.340;5.984;2023-08-24T14:53:46;26.12;67.59
47861;HTU21D;33620;52.340;5.984;2023-08-24T14:56:11;26.11;67.91
47861;HTU21D;33620;52.340;5.984;2023-08-24T14:58:37;26.08;68.31
47861;HTU21D;33620;52.340;5.984;2023-08-24T15:01:02;26.01;68.47
47861;HTU21D;33620;52.340;5.984;2023-08-24T15:03:27;25.99;68.34
47861;HTU21D;33620;52.340;5.984;2023-08-24T15:06:01;25.95;68.34
47861;HTU21D;33620;52.340;5.984;2023-08-24T15:08:29;25.91;68.83
47861;HTU21D;33620;52.340;5.984;2023-08-24T15:10:55;25.89;69.11
47861;HTU21D;33620;52.340;5.984;2023-08-24T15:13:22;25.86;69.33
47861;HTU21D;33620;52.340;5.984;2023-08-24T15:15:47;25.83;69.61
47861;HTU21D;33620;52.340;5.984;2023-08-24T15:18:13;25.81;69.34
47861;HTU21D;33620;52.340;5.984;2023-08-24T15:20:38;25.80;68.96
47861;HTU21D;33620;52.340;5.984;2023-08-24T15:23:04;25.78;69.87
47861;HTU21D;33620;52.340;5.984;2023-08-24T15:25:29;25.77;70.27